sensor_id;sensor_type;location;lat;lon;timestamp;temperature;humidity
9987;DHT22;5033;46.310;11.214;2023-03-01T00:02:21;4.00;99.90
9987;DHT22;5033;46.310;11.214;2023-03-01T00:04:48;3.90;99.90
9987;DHT22;5033;46.310;11.214;2023-03-01T00:07:15;3.90;99.90
9987;DHT22;5033;46.310;11.214;2023-03-01T00:09:43;3.90;99.90
9987;DHT22;5033;46.310;11.214;2023-03-01T00:12:11;3.90;99.90
9987;DHT22;5033;46.310;11.214;2023-03-01T00:14:38;3.90;99.90
9987;DHT22;5033;46.310;11.214;2023-03-01T00:17:07;3.90;99.90
9987;DHT22;5033;46.310;11.214;2023-03-01T00:19:34;3.90;99.90
9987;DHT22;5033;46.310;11.214;2023-03-01T00:22:02;3.90;99.90
9987;DHT22;5033;46.310;11.214;2023-03-01T00:24:29;3.80;99.90
9987;DHT22;5033;46.310;11.214;2023-03-01T00:26:56;3.80;99.90
9987;DHT22;5033;46.310;11.214;2023-03-01T00:29:24;3.80;99.90
9987;DHT22;5033;46.310;11.214;2023-03-01T00:31:51;3.80;99.90
9987;DHT22;5033;46.310;11.214;2023-03-01T00:34:19;3.80;99.90
9987;DHT22;5033;46.310;11.214;2023-03-01T00:36:46;3.80;99.90
9987;DHT22;5033;46.310;11.214;2023-03-01T00:39:15;3.80;99.90
9987;DHT22;5033;46.310;11.214;2023-03-01T00:41:42;3.70;99.90
9987;DHT22;5033;46.310;11.214;2023-03-01T00:44:10;3.70;99.90
9987;DHT22;5033;46.310;11.214;2023-03-01T00:46:37;3.70;99.90
9987;DHT22;5033;46.310;11.214;2023-03-01T00:49:04;3.70;99.90
9987;DHT22;5033;46.310;11.214;2023-03-01T00:51:32;3.70;99.90
9987;DHT22;5033;46.310;11.214;2023-03-01T00:54:02;3.70;99.90
9987;DHT22;5033;46.310;11.214;2023-03-01T00:56:29;3.70;99.90
9987;DHT22;5033;46.310;11.214;2023-03-01T00:58:56;3.70;99.90
9987;DHT22;5033;46.310;11.214;2023-03-01T01:01:26;3.70;99.90
9987;DHT22;5033;46.310;11.214;2023-03-01T01:03:57;3.70;99.90
9987;DHT22;5033;46.310;11.214;2023-03-01T01:06:26;3.70;99.90
9987;DHT22;5033;46.310;11.214;2023-03-01T01:08:55;3.70;99.90
9987;DHT22;5033;46.310;11.214;2023-03-01T01:11:24;3.60;99.90
9987;DHT22;5033;46.310;11.214;2023-03-01T01:13:51;3.60;99.90
9987;DHT22;5033;46.310;11.214;2023-03-01T01:16:20;3.60;99.90
9987;DHT22;5033;46.310;11.214;2023-03-01T01:18:47;3.60;99.90
9987;DHT22;5033;46.310;11.214;2023-03-01T01:21:16;3.60;99.90
9987;DHT22;5033;46.310;11.214;2023-03-01T01:23:45;3.60;99.90
9987;DHT22;5033;46.310;11.214;2023-03-01T01:26:15;3.60;99.90
9987;DHT22;5033;46.310;11.214;2023-03-01T01:28:42;3.60;99.90
9987;DHT22;5033;46.310;11.214;2023-03-01T01:31:09;3.60;99.90
9987;DHT22;5033;46.310;11.214;2023-03-01T01:33:37;3.60;99.90
9987;DHT22;5033;46.310;11.214;2023-03-01T01:36:05;3.50;99.90
9987;DHT22;5033;46.310;11.214;2023-03-01T01:38:32;3.50;99.90
9987;DHT22;5033;46.310;11.214;2023-03-01T01:40:59;3.40;99.90
9987;DHT22;5033;46.310;11.214;2023-03-01T01:43:29;3.40;99.90
9987;DHT22;5033;46.310;11.214;2023-03-01T01:45:59;3.40;99.90
9987;DHT22;5033;46.310;11.214;2023-03-01T01:48:32;3.40;99.90
9987;DHT22;5033;46.310;11.214;2023-03-01T01:51:08;3.40;99.90
9987;DHT22;5033;46.310;11.214;2023-03-01T01:53:37;3.30;99.90
9987;DHT22;5033;46.310;11.214;2023-03-01T01:56:07;3.30;99.90
9987;DHT22;5033;46.310;11.214;2023-03-01T01:58:37;3.30;99.90
9987;DHT22;5033;46.310;11.214;2023-03-01T02:01:05;3.30;99.90
9987;DHT22;5033;46.310;11.214;2023-03-01T02:03:33;3.30;99.90
9987;DHT22;5033;46.310;11.214;2023-03-01T02:06:06;3.30;99.90
9987;DHT22;5033;46.310;11.214;2023-03-01T02:08:37;3.20;99.90
9987;DHT22;5033;46.310;11.214;2023-03-01T02:11:05;3.30;99.90
9987;DHT22;5033;46.310;11.214;2023-03-01T02:13:33;3.30;99.90
9987;DHT22;5033;46.310;11.214;2023-03-01T02:16:05;3.20;99.90
9987;DHT22;5033;46.310;11.214;2023-03-01T02:18:34;3.20;99.90
9987;DHT22;5033;46.310;11.214;2023-03-01T02:21:08;3.20;99.90
9987;DHT22;5033;46.310;11.214;2023-03-01T02:23:39;3.20;99.90
9987;DHT22;5033;46.310;11.214;2023-03-01T02:26:10;3.20;99.90
9987;DHT22;5033;46.310;11.214;2023-03-01T02:28:42;3.20;99.90
9987;DHT22;5033;46.310;11.214;2023-03-01T02:31:11;3.20;99.90
9987;DHT22;5033;46.310;11.214;2023-03-01T02:33:58;3.20;99.90
9987;DHT22;5033;46.310;11.214;2023-03-01T02:36:30;3.20;99.90
9987;DHT22;5033;46.310;11.214;2023-03-01T02:38:59;3.20;99.90
9987;DHT22;5033;46.310;11.214;2023-03-01T02:41:31;3.10;99.90
9987;DHT22;5033;46.310;11.214;2023-03-01T02:44:02;3.10;99.90
9987;DHT22;5033;46.310;11.214;2023-03-01T02:46:29;3.10;99.90
9987;DHT22;5033;46.310;11.214;2023-03-01T02:48:58;3.10;99.90
9987;DHT22;5033;46.310;11.214;2023-03-01T02:51:34;3.10;99.90
9987;DHT22;5033;46.310;11.214;2023-03-01T02:54:15;3.10;99.90
9987;DHT22;5033;46.310;11.214;2023-03-01T02:56:43;3.10;99.90
9987;DHT22;5033;46.310;11.214;2023-03-01T02:59:16;3.10;99.90
9987;DHT22;5033;46.310;11.214;2023-03-01T03:01:44;3.10;99.90
9987;DHT22;5033;46.310;11.214;2023-03-01T03:04:14;3.10;99.90
9987;DHT22;5033;46.310;11.214;2023-03-01T03:06:42;3.10;99.90
9987;DHT22;5033;46.310;11.214;2023-03-01T03:09:09;3.10;99.90
9987;DHT22;5033;46.310;11.214;2023-03-01T03:11:36;3.10;99.90
9987;DHT22;5033;46.310;11.214;2023-03-01T03:14:04;3.10;99.90
9987;DHT22;5033;46.310;11.214;2023-03-01T03:16:40;3.00;99.90
9987;DHT22;5033;46.310;11.214;2023-03-01T03:19:07;3.00;99.90
9987;DHT22;5033;46.310;11.214;2023-03-01T03:21:34;3.00;99.90
9987;DHT22;5033;46.310;11.214;2023-03-01T03:24:02;3.00;99.90
9987;DHT22;5033;46.310;11.214;2023-03-01T03:26:29;3.00;99.90
9987;DHT22;5033;46.310;11.214;2023-03-01T03:28:57;2.90;99.90
9987;DHT22;5033;46.310;11.214;2023-03-01T03:31:24;2.90;99.90
9987;DHT22;5033;46.310;11.214;2023-03-01T03:33:52;2.90;99.90
9987;DHT22;5033;46.310;11.214;2023-03-01T03:36:22;2.90;99.90
9987;DHT22;5033;46.310;11.214;2023-03-01T03:38:50;2.80;99.90
9987;DHT22;5033;46.310;11.214;2023-03-01T03:41:17;2.80;99.90
9987;DHT22;5033;46.310;11.214;2023-03-01T03:43:44;2.80;99.90
9987;DHT22;5033;46.310;11.214;2023-03-01T03:46:11;2.80;99.90
9987;DHT22;5033;46.310;11.214;2023-03-01T03:48:41;2.90;99.90
9987;DHT22;5033;46.310;11.214;2023-03-01T03:51:12;2.90;99.90
9987;DHT22;5033;46.310;11.214;2023-03-01T03:53:39;2.80;99.90
9987;DHT22;5033;46.310;11.214;2023-03-01T03:56:07;2.80;99.90
9987;DHT22;5033;46.310;11.214;2023-03-01T03:58:34;2.80;99.90
9987;DHT22;5033;46.310;11.214;2023-03-01T04:01:01;2.80;99.90
9987;DHT22;5033;46.310;11.214;2023-03-01T04:03:29;2.80;99.90
9987;DHT22;5033;46.310;11.214;2023-03-01T04:05:57;2.80;99.90
9987;DHT22;5033;46.310;11.214;2023-03-01T04:08:26;2.70;99.90
9987;DHT22;5033;46.310;11.214;2023-03-01T04:10:57;2.70;99.90
9987;DHT22;5033;46.310;11.214;2023-03-01T04:13:24;2.70;99.90
9987;DHT22;5033;46.310;11.214;2023-03-01T04:15:52;2.70;99.90
9987;DHT22;5033;46.310;11.214;2023-03-01T04:18:21;2.70;99.90
9987;DHT22;5033;46.310;11.214;2023-03-01T04:20:48;2.60;99.90
9987;DHT22;5033;46.310;11.214;2023-03-01T04:23:20;2.50;99.90
9987;DHT22;5033;46.310;11.214;2023-03-01T04:25:50;2.40;99.90
9987;DHT22;5033;46.310;11.214;2023-03-01T04:28:20;2.40;99.90
9987;DHT22;5033;46.310;11.214;2023-03-01T04:30:47;2.40;99.90
9987;DHT22;5033;46.310;11.214;2023-03-01T04:33:14;2.40;99.90
9987;DHT22;5033;46.310;11.214;2023-03-01T04:35:41;2.50;99.90
9987;DHT22;5033;46.310;11.214;2023-03-01T04:38:08;2.50;99.90
9987;DHT22;5033;46.310;11.214;2023-03-01T04:40:36;2.50;99.90
9987;DHT22;5033;46.310;11.214;2023-03-01T04:43:05;2.50;99.90
9987;DHT22;5033;46.310;11.214;2023-03-01T04:45:32;2.50;99.90
9987;DHT22;5033;46.310;11.214;2023-03-01T04:48:01;2.50;99.90
9987;DHT22;5033;46.310;11.214;2023-03-01T04:50:28;2.50;99.90
9987;DHT22;5033;46.310;11.214;2023-03-01T04:52:55;2.50;99.90
9987;DHT22;5033;46.310;11.214;2023-03-01T04:55:24;2.50;99.90
9987;DHT22;5033;46.310;11.214;2023-03-01T04:57:52;2.40;99.90
9987;DHT22;5033;46.310;11.214;2023-03-01T05:00:21;2.40;99.90
9987;DHT22;5033;46.310;11.214;2023-03-01T05:02:50;2.40;99.90
9987;DHT22;5033;46.310;11.214;2023-03-01T05:05:25;2.40;99.90
9987;DHT22;5033;46.310;11.214;2023-03-01T05:07:53;2.40;99.90
9987;DHT22;5033;46.310;11.214;2023-03-01T05:10:21;2.40;99.90
9987;DHT22;5033;46.310;11.214;2023-03-01T05:12:48;2.40;99.90
9987;DHT22;5033;46.310;11.214;2023-03-01T05:15:15;2.40;99.90
9987;DHT22;5033;46.310;11.214;2023-03-01T05:17:43;2.40;99.90
9987;DHT22;5033;46.310;11.214;2023-03-01T05:20:12;2.30;99.90
9987;DHT22;5033;46.310;11.214;2023-03-01T05:22:38;2.40;99.90
9987;DHT22;5033;46.310;11.214;2023-03-01T05:25:06;2.40;99.90
9987;DHT22;5033;46.310;11.214;2023-03-01T05:27:34;2.40;99.90
9987;DHT22;5033;46.310;11.214;2023-03-01T05:30:01;2.30;99.90
9987;DHT22;5033;46.310;11.214;2023-03-01T05:32:40;2.30;99.90
9987;DHT22;5033;46.310;11.214;2023-03-01T05:35:09;2.30;99.90
9987;DHT22;5033;46.310;11.214;2023-03-01T05:37:39;2.30;99.90
9987;DHT22;5033;46.310;11.214;2023-03-01T05:40:08;2.30;99.90
9987;DHT22;5033;46.310;11.214;2023-03-01T05:42:42;2.30;99.90
9987;DHT22;5033;46.310;11.214;2023-03-01T05:45:09;2.30;99.90
9987;DHT22;5033;46.310;11.214;2023-03-01T05:47:38;2.30;99.90
9987;DHT22;5033;46.310;11.214;2023-03-01T05:50:11;2.40;99.90
9987;DHT22;5033;46.310;11.214;2023-03-01T05:52:39;2.40;99.90
9987;DHT22;5033;46.310;11.214;2023-03-01T05:55:06;2.40;99.90
9987;DHT22;5033;46.310;11.214;2023-03-01T05:57:33;2.30;99.90
9987;DHT22;5033;46.310;11.214;2023-03-01T06:00:00;2.20;99.90
9987;DHT22;5033;46.310;11.214;2023-03-01T06:02:28;2.20;99.90
9987;DHT22;5033;46.310;11.214;2023-03-01T06:04:55;2.30;99.90
9987;DHT22;5033;46.310;11.214;2023-03-01T06:07:24;2.30;99.90
9987;DHT22;5033;46.310;11.214;2023-03-01T06:09:50;2.30;99.90
9987;DHT22;5033;46.310;11.214;2023-03-01T06:12:17;2.30;99.90
9987;DHT22;5033;46.310;11.214;2023-03-01T06:14:45;2.40;99.90
9987;DHT22;5033;46.310;11.214;2023-03-01T06:17:12;2.40;99.90
9987;DHT22;5033;46.310;11.214;2023-03-01T06:19:39;2.50;99.90
9987;DHT22;5033;46.310;11.214;2023-03-01T06:22:06;2.50;99.90
9987;DHT22;5033;46.310;11.214;2023-03-01T06:24:35;2.60;99.90
9987;DHT22;5033;46.310;11.214;2023-03-01T06:27:02;2.70;99.90
9987;DHT22;5033;46.310;11.214;2023-03-01T06:29:29;2.80;99.90
9987;DHT22;5033;46.310;11.214;2023-03-01T06:31:56;2.80;99.90
9987;DHT22;5033;46.310;11.214;2023-03-01T06:34:23;2.90;99.90
9987;DHT22;5033;46.310;11.214;2023-03-01T06:36:50;3.00;99.90
9987;DHT22;5033;46.310;11.214;2023-03-01T06:39:17;3.00;99.90
9987;DHT22;5033;46.310;11.214;2023-03-01T06:41:45;3.10;99.90
9987;DHT22;5033;46.310;11.214;2023-03-01T06:44:12;3.10;99.90
9987;DHT22;5033;46.310;11.214;2023-03-01T06:46:39;3.20;99.90
9987;DHT22;5033;46.310;11.214;2023-03-01T06:49:06;3.20;99.90
9987;DHT22;5033;46.310;11.214;2023-03-01T06:51:35;3.30;99.90
9987;DHT22;5033;46.310;11.214;2023-03-01T06:54:03;3.30;99.90
9987;DHT22;5033;46.310;11.214;2023-03-01T06:56:30;3.40;99.90
9987;DHT22;5033;46.310;11.214;2023-03-01T06:58:59;3.40;99.90
9987;DHT22;5033;46.310;11.214;2023-03-01T07:01:26;3.50;99.90
9987;DHT22;5033;46.310;11.214;2023-03-01T07:03:53;3.50;99.90
9987;DHT22;5033;46.310;11.214;2023-03-01T07:06:20;3.60;99.90
9987;DHT22;5033;46.310;11.214;2023-03-01T07:08:47;3.60;99.90
9987;DHT22;5033;46.310;11.214;2023-03-01T07:11:14;3.70;99.90
9987;DHT22;5033;46.310;11.214;2023-03-01T07:13:42;3.80;99.90
9987;DHT22;5033;46.310;11.214;2023-03-01T07:16:10;3.90;99.90
9987;DHT22;5033;46.310;11.214;2023-03-01T07:18:37;4.10;99.90
9987;DHT22;5033;46.310;11.214;2023-03-01T07:21:05;4.20;99.90
9987;DHT22;5033;46.310;11.214;2023-03-01T07:23:32;4.30;99.90
9987;DHT22;5033;46.310;11.214;2023-03-01T07:25:59;4.40;99.90
9987;DHT22;5033;46.310;11.214;2023-03-01T07:28:27;4.50;99.90
9987;DHT22;5033;46.310;11.214;2023-03-01T07:30:54;4.60;99.90
9987;DHT22;5033;46.310;11.214;2023-03-01T07:33:22;4.80;99.90
9987;DHT22;5033;46.310;11.214;2023-03-01T07:35:56;5.00;99.90
9987;DHT22;5033;46.310;11.214;2023-03-01T07:38:23;5.20;99.90
9987;DHT22;5033;46.310;11.214;2023-03-01T07:40:50;5.30;99.90
9987;DHT22;5033;46.310;11.214;2023-03-01T07:43:16;5.70;99.90
9987;DHT22;5033;46.310;11.214;2023-03-01T07:45:44;6.30;99.90
9987;DHT22;5033;46.310;11.214;2023-03-01T07:48:11;7.00;99.90
9987;DHT22;5033;46.310;11.214;2023-03-01T07:50:39;7.80;99.90
9987;DHT22;5033;46.310;11.214;2023-03-01T07:53:06;8.60;99.90
9987;DHT22;5033;46.310;11.214;2023-03-01T07:55:33;9.20;99.90
9987;DHT22;5033;46.310;11.214;2023-03-01T07:57:59;9.40;99.90
9987;DHT22;5033;46.310;11.214;2023-03-01T08:00:26;9.40;99.90
9987;DHT22;5033;46.310;11.214;2023-03-01T08:02:53;9.50;99.90
9987;DHT22;5033;46.310;11.214;2023-03-01T08:05:20;9.60;99.90
9987;DHT22;5033;46.310;11.214;2023-03-01T08:07:49;9.70;99.90
9987;DHT22;5033;46.310;11.214;2023-03-01T08:10:17;10.00;99.90
9987;DHT22;5033;46.310;11.214;2023-03-01T08:12:44;10.30;99.90
9987;DHT22;5033;46.310;11.214;2023-03-01T08:15:11;10.40;99.90
9987;DHT22;5033;46.310;11.214;2023-03-01T08:17:38;10.10;99.90
9987;DHT22;5033;46.310;11.214;2023-03-01T08:20:05;10.10;99.90
9987;DHT22;5033;46.310;11.214;2023-03-01T08:22:33;10.30;99.90
9987;DHT22;5033;46.310;11.214;2023-03-01T08:25:01;10.30;99.90
9987;DHT22;5033;46.310;11.214;2023-03-01T08:27:28;10.00;99.90
9987;DHT22;5033;46.310;11.214;2023-03-01T08:29:55;9.40;99.90
9987;DHT22;5033;46.310;11.214;2023-03-01T08:32:22;8.90;99.90
9987;DHT22;5033;46.310;11.214;2023-03-01T08:34:49;8.40;99.90
9987;DHT22;5033;46.310;11.214;2023-03-01T08:37:16;8.10;99.90
9987;DHT22;5033;46.310;11.214;2023-03-01T08:39:42;7.90;99.90
9987;DHT22;5033;46.310;11.214;2023-03-01T08:42:11;7.90;99.90
9987;DHT22;5033;46.310;11.214;2023-03-01T08:44:38;7.90;99.90
9987;DHT22;5033;46.310;11.214;2023-03-01T08:47:04;7.90;99.90
9987;DHT22;5033;46.310;11.214;2023-03-01T08:49:31;8.10;99.90
9987;DHT22;5033;46.310;11.214;2023-03-01T08:51:59;8.40;99.90
9987;DHT22;5033;46.310;11.214;2023-03-01T08:54:26;8.90;99.90
9987;DHT22;5033;46.310;11.214;2023-03-01T08:56:54;9.30;99.90
9987;DHT22;5033;46.310;11.214;2023-03-01T08:59:22;9.60;99.90
9987;DHT22;5033;46.310;11.214;2023-03-01T09:01:49;9.80;99.90
9987;DHT22;5033;46.310;11.214;2023-03-01T09:04:16;10.00;99.90
9987;DHT22;5033;46.310;11.214;2023-03-01T09:06:43;10.40;99.90
9987;DHT22;5033;46.310;11.214;2023-03-01T09:09:13;10.40;99.90
9987;DHT22;5033;46.310;11.214;2023-03-01T09:11:41;10.00;99.90
9987;DHT22;5033;46.310;11.214;2023-03-01T09:14:08;9.50;99.90
9987;DHT22;5033;46.310;11.214;2023-03-01T09:16:37;9.30;99.90
9987;DHT22;5033;46.310;11.214;2023-03-01T09:19:04;9.20;99.90
9987;DHT22;5033;46.310;11.214;2023-03-01T09:21:31;9.20;99.90
9987;DHT22;5033;46.310;11.214;2023-03-01T09:23:58;9.00;99.90
9987;DHT22;5033;46.310;11.214;2023-03-01T09:26:25;8.80;99.90
9987;DHT22;5033;46.310;11.214;2023-03-01T09:28:54;8.60;99.90
9987;DHT22;5033;46.310;11.214;2023-03-01T09:31:23;8.50;99.90
9987;DHT22;5033;46.310;11.214;2023-03-01T09:33:53;8.40;99.90
9987;DHT22;5033;46.310;11.214;2023-03-01T09:36:21;8.60;99.90
9987;DHT22;5033;46.310;11.214;2023-03-01T09:38:49;8.90;99.90
9987;DHT22;5033;46.310;11.214;2023-03-01T09:41:43;9.00;99.90
9987;DHT22;5033;46.310;11.214;2023-03-01T09:44:22;9.00;99.90
9987;DHT22;5033;46.310;11.214;2023-03-01T09:46:52;9.10;99.90
9987;DHT22;5033;46.310;11.214;2023-03-01T09:49:24;9.00;99.90
9987;DHT22;5033;46.310;11.214;2023-03-01T09:51:57;9.70;99.90
9987;DHT22;5033;46.310;11.214;2023-03-01T09:54:25;10.00;99.90
9987;DHT22;5033;46.310;11.214;2023-03-01T09:57:09;10.10;99.90
9987;DHT22;5033;46.310;11.214;2023-03-01T09:59:48;10.00;99.90
9987;DHT22;5033;46.310;11.214;2023-03-01T10:02:24;10.20;99.90
9987;DHT22;5033;46.310;11.214;2023-03-01T10:04:57;10.60;99.90
9987;DHT22;5033;46.310;11.214;2023-03-01T10:07:37;10.80;99.90
9987;DHT22;5033;46.310;11.214;2023-03-01T10:10:07;10.70;99.90
9987;DHT22;5033;46.310;11.214;2023-03-01T10:12:37;10.80;99.90
9987;DHT22;5033;46.310;11.214;2023-03-01T10:15:09;10.80;99.90
9987;DHT22;5033;46.310;11.214;2023-03-01T10:17:41;11.20;99.90
9987;DHT22;5033;46.310;11.214;2023-03-01T10:20:19;11.60;99.90
9987;DHT22;5033;46.310;11.214;2023-03-01T10:22:47;11.50;99.90
9987;DHT22;5033;46.310;11.214;2023-03-01T10:25:20;11.50;99.90
9987;DHT22;5033;46.310;11.214;2023-03-01T10:27:52;11.60;99.90
9987;DHT22;5033;46.310;11.214;2023-03-01T10:30:21;11.50;99.90
9987;DHT22;5033;46.310;11.214;2023-03-01T10:32:51;11.10;99.90
9987;DHT22;5033;46.310;11.214;2023-03-01T10:35:23;11.00;99.90
9987;DHT22;5033;46.310;11.214;2023-03-01T10:38:04;11.00;99.90
9987;DHT22;5033;46.310;11.214;2023-03-01T10:40:32;11.00;99.90
9987;DHT22;5033;46.310;11.214;2023-03-01T10:43:03;10.90;99.90
9987;DHT22;5033;46.310;11.214;2023-03-01T10:45:34;11.10;99.90
9987;DHT22;5033;46.310;11.214;2023-03-01T10:48:13;11.20;99.90
9987;DHT22;5033;46.310;11.214;2023-03-01T10:50:44;11.40;99.90
9987;DHT22;5033;46.310;11.214;2023-03-01T10:53:26;11.50;99.90
9987;DHT22;5033;46.310;11.214;2023-03-01T10:56:00;11.30;99.90
9987;DHT22;5033;46.310;11.214;2023-03-01T10:58:28;11.30;99.90
9987;DHT22;5033;46.310;11.214;2023-03-01T11:00:57;11.60;99.90
9987;DHT22;5033;46.310;11.214;2023-03-01T11:03:25;11.70;99.90
9987;DHT22;5033;46.310;11.214;2023-03-01T11:06:00;12.30;99.90
9987;DHT22;5033;46.310;11.214;2023-03-01T11:08:38;13.00;99.90
9987;DHT22;5033;46.310;11.214;2023-03-01T11:11:21;13.60;99.90
9987;DHT22;5033;46.310;11.214;2023-03-01T11:13:54;13.30;99.90
9987;DHT22;5033;46.310;11.214;2023-03-01T11:16:29;12.70;99.90
9987;DHT22;5033;46.310;11.214;2023-03-01T11:19:01;12.20;99.90
9987;DHT22;5033;46.310;11.214;2023-03-01T11:21:33;11.80;99.90
9987;DHT22;5033;46.310;11.214;2023-03-01T11:24:02;11.40;99.90
9987;DHT22;5033;46.310;11.214;2023-03-01T11:26:36;11.20;99.90
9987;DHT22;5033;46.310;11.214;2023-03-01T11:29:12;11.10;99.90
9987;DHT22;5033;46.310;11.214;2023-03-01T11:31:46;11.00;99.90
9987;DHT22;5033;46.310;11.214;2023-03-01T11:34:17;10.70;99.90
9987;DHT22;5033;46.310;11.214;2023-03-01T11:36:53;10.60;99.90
9987;DHT22;5033;46.310;11.214;2023-03-01T11:39:28;10.40;99.90
9987;DHT22;5033;46.310;11.214;2023-03-01T11:42:04;10.40;99.90
9987;DHT22;5033;46.310;11.214;2023-03-01T11:44:35;10.40;99.90
9987;DHT22;5033;46.310;11.214;2023-03-01T11:47:16;10.30;99.90
9987;DHT22;5033;46.310;11.214;2023-03-01T11:50:02;10.30;99.90
9987;DHT22;5033;46.310;11.214;2023-03-01T11:52:42;10.20;99.90
9987;DHT22;5033;46.310;11.214;2023-03-01T11:55:29;10.10;99.90
9987;DHT22;5033;46.310;11.214;2023-03-01T11:58:17;10.10;99.90
9987;DHT22;5033;46.310;11.214;2023-03-01T12:01:07;10.00;99.90
9987;DHT22;5033;46.310;11.214;2023-03-01T12:09:47;10.00;99.90
9987;DHT22;5033;46.310;11.214;2023-03-01T12:12:29;10.00;99.90
9987;DHT22;5033;46.310;11.214;2023-03-01T12:15:37;10.10;99.90
9987;DHT22;5033;46.310;11.214;2023-03-01T12:18:19;10.10;99.90
9987;DHT22;5033;46.310;11.214;2023-03-01T12:20:58;10.10;99.90
9987;DHT22;5033;46.310;11.214;2023-03-01T12:26:34;10.30;99.90
9987;DHT22;5033;46.310;11.214;2023-03-01T12:29:21;10.50;99.90
9987;DHT22;5033;46.310;11.214;2023-03-01T12:32:10;10.50;99.90
9987;DHT22;5033;46.310;11.214;2023-03-01T12:35:21;10.60;99.90
9987;DHT22;5033;46.310;11.214;2023-03-01T12:37:56;10.70;99.90
9987;DHT22;5033;46.310;11.214;2023-03-01T12:40:38;10.70;99.90
9987;DHT22;5033;46.310;11.214;2023-03-01T12:43:17;10.80;99.90
9987;DHT22;5033;46.310;11.214;2023-03-01T12:45:58;11.00;99.90
9987;DHT22;5033;46.310;11.214;2023-03-01T12:48:38;11.10;99.90
9987;DHT22;5033;46.310;11.214;2023-03-01T12:51:08;11.30;99.90
9987;DHT22;5033;46.310;11.214;2023-03-01T12:53:40;11.50;99.90
9987;DHT22;5033;46.310;11.214;2023-03-01T12:56:10;11.60;99.90
9987;DHT22;5033;46.310;11.214;2023-03-01T12:58:46;11.60;99.90
9987;DHT22;5033;46.310;11.214;2023-03-01T13:01:25;11.40;99.90
9987;DHT22;5033;46.310;11.214;2023-03-01T13:04:14;11.40;99.90
9987;DHT22;5033;46.310;11.214;2023-03-01T13:06:47;11.40;99.90
9987;DHT22;5033;46.310;11.214;2023-03-01T13:09:24;11.50;99.90
9987;DHT22;5033;46.310;11.214;2023-03-01T13:11:55;11.40;99.90
9987;DHT22;5033;46.310;11.214;2023-03-01T13:14:44;11.40;99.90
9987;DHT22;5033;46.310;11.214;2023-03-01T13:17:33;11.30;99.90
9987;DHT22;5033;46.310;11.214;2023-03-01T13:20:00;11.10;99.90
9987;DHT22;5033;46.310;11.214;2023-03-01T13:22:31;11.00;99.90
9987;DHT22;5033;46.310;11.214;2023-03-01T13:25:12;10.90;99.90
9987;DHT22;5033;46.310;11.214;2023-03-01T13:27:40;10.80;99.90
9987;DHT22;5033;46.310;11.214;2023-03-01T13:30:40;10.60;99.90
9987;DHT22;5033;46.310;11.214;2023-03-01T13:33:44;10.40;99.90
9987;DHT22;5033;46.310;11.214;2023-03-01T13:36:48;10.30;99.90
9987;DHT22;5033;46.310;11.214;2023-03-01T13:39:31;10.10;99.90
9987;DHT22;5033;46.310;11.214;2023-03-01T13:41:59;10.00;99.90
9987;DHT22;5033;46.310;11.214;2023-03-01T13:44:31;9.90;99.90
9987;DHT22;5033;46.310;11.214;2023-03-01T13:47:07;9.80;99.90
9987;DHT22;5033;46.310;11.214;2023-03-01T13:49:46;9.80;99.90
9987;DHT22;5033;46.310;11.214;2023-03-01T13:52:32;9.70;99.90
9987;DHT22;5033;46.310;11.214;2023-03-01T13:55:03;9.80;99.90
9987;DHT22;5033;46.310;11.214;2023-03-01T13:57:33;9.90;99.90
9987;DHT22;5033;46.310;11.214;2023-03-01T14:00:03;10.00;99.90
9987;DHT22;5033;46.310;11.214;2023-03-01T14:02:32;10.10;99.90
9987;DHT22;5033;46.310;11.214;2023-03-01T14:05:00;10.10;99.90
9987;DHT22;5033;46.310;11.214;2023-03-01T14:07:31;10.00;99.90
9987;DHT22;5033;46.310;11.214;2023-03-01T14:10:00;9.90;99.90
9987;DHT22;5033;46.310;11.214;2023-03-01T14:12:41;9.90;99.90
9987;DHT22;5033;46.310;11.214;2023-03-01T14:15:18;10.00;99.90
9987;DHT22;5033;46.310;11.214;2023-03-01T14:18:12;10.00;99.90
9987;DHT22;5033;46.310;11.214;2023-03-01T14:20:43;10.00;99.90
9987;DHT22;5033;46.310;11.214;2023-03-01T14:23:13;10.00;99.90
9987;DHT22;5033;46.310;11.214;2023-03-01T14:25:47;10.00;99.90
9987;DHT22;5033;46.310;11.214;2023-03-01T14:28:17;10.00;99.90
9987;DHT22;5033;46.310;11.214;2023-03-01T14:30:47;10.10;99.90
9987;DHT22;5033;46.310;11.214;2023-03-01T14:33:24;10.00;99.90
9987;DHT22;5033;46.310;11.214;2023-03-01T14:35:55;10.00;99.90
9987;DHT22;5033;46.310;11.214;2023-03-01T14:38:28;10.00;99.90
9987;DHT22;5033;46.310;11.214;2023-03-01T14:40:59;10.00;99.90
9987;DHT22;5033;46.310;11.214;2023-03-01T14:43:29;9.90;99.90
9987;DHT22;5033;46.310;11.214;2023-03-01T14:45:57;9.90;99.90
9987;DHT22;5033;46.310;11.214;2023-03-01T14:48:27;9.80;99.90
9987;DHT22;5033;46.310;11.214;2023-03-01T14:50:56;9.80;99.90
9987;DHT22;5033;46.310;11.214;2023-03-01T14:53:27;9.80;99.90
9987;DHT22;5033;46.310;11.214;2023-03-01T14:55:57;9.80;99.90
9987;DHT22;5033;46.310;11.214;2023-03-01T14:58:27;9.70;99.90
9987;DHT22;5033;46.310;11.214;2023-03-01T15:00:56;9.70;99.90
9987;DHT22;5033;46.310;11.214;2023-03-01T15:03:30;9.60;99.90
9987;DHT22;5033;46.310;11.214;2023-03-01T15:05:58;9.40;99.90
9987;DHT22;5033;46.310;11.214;2023-03-01T15:08:27;9.30;99.90
9987;DHT22;5033;46.310;11.214;2023-03-01T15:11:01;9.40;99.90
9987;DHT22;5033;46.310;11.214;2023-03-01T15:13:31;9.40;99.90
9987;DHT22;5033;46.310;11.214;2023-03-01T15:16:05;9.40;99.90
9987;DHT22;5033;46.310;11.214;2023-03-01T15:18:36;9.30;99.90
9987;DHT22;5033;46.310;11.214;2023-03-01T15:21:09;9.30;99.90
9987;DHT22;5033;46.310;11.214;2023-03-01T15:23:38;9.30;99.90
9987;DHT22;5033;46.310;11.214;2023-03-01T15:26:16;9.20;99.90
9987;DHT22;5033;46.310;11.214;2023-03-01T15:28:51;9.20;99.90
9987;DHT22;5033;46.310;11.214;2023-03-01T15:31:20;9.30;99.90
9987;DHT22;5033;46.310;11.214;2023-03-01T15:33:50;9.40;99.90
9987;DHT22;5033;46.310;11.214;2023-03-01T15:36:36;9.30;99.90
9987;DHT22;5033;46.310;11.214;2023-03-01T15:39:22;9.30;99.90
9987;DHT22;5033;46.310;11.214;2023-03-01T15:41:52;9.30;99.90
9987;DHT22;5033;46.310;11.214;2023-03-01T15:44:27;9.30;99.90
9987;DHT22;5033;46.310;11.214;2023-03-01T15:46:54;9.40;99.90
9987;DHT22;5033;46.310;11.214;2023-03-01T15:49:33;9.40;99.90
9987;DHT22;5033;46.310;11.214;2023-03-01T15:52:01;9.30;99.90
9987;DHT22;5033;46.310;11.214;2023-03-01T15:54:29;9.20;99.90
9987;DHT22;5033;46.310;11.214;2023-03-01T15:56:56;9.10;99.90
9987;DHT22;5033;46.310;11.214;2023-03-01T15:59:23;9.10;99.90
9987;DHT22;5033;46.310;11.214;2023-03-01T16:01:50;9.10;99.90
9987;DHT22;5033;46.310;11.214;2023-03-01T16:04:19;9.00;99.90
9987;DHT22;5033;46.310;11.214;2023-03-01T16:06:51;9.00;99.90
9987;DHT22;5033;46.310;11.214;2023-03-01T16:09:22;9.00;99.90
9987;DHT22;5033;46.310;11.214;2023-03-01T16:11:50;9.00;99.90
9987;DHT22;5033;46.310;11.214;2023-03-01T16:14:17;9.00;99.90
9987;DHT22;5033;46.310;11.214;2023-03-01T16:16:45;8.80;99.90
9987;DHT22;5033;46.310;11.214;2023-03-01T16:19:13;8.80;99.90
9987;DHT22;5033;46.310;11.214;2023-03-01T16:21:41;8.70;99.90
9987;DHT22;5033;46.310;11.214;2023-03-01T16:24:14;8.70;99.90
9987;DHT22;5033;46.310;11.214;2023-03-01T16:26:42;8.70;99.90
9987;DHT22;5033;46.310;11.214;2023-03-01T16:29:09;8.70;99.90
9987;DHT22;5033;46.310;11.214;2023-03-01T16:31:37;8.60;99.90